createdAt,value
2018-10-17T00:01:39.033Z,17.77
2018-10-17T00:04:06.737Z,21.37
2018-10-17T00:06:34.390Z,21.83
2018-10-17T00:09:02.138Z,25.03
2018-10-17T00:11:29.856Z,21.90
2018-10-17T00:13:57.553Z,22.60
2018-10-17T00:16:25.274Z,25.80
2018-10-17T00:18:52.902Z,22.27
2018-10-17T00:21:20.554Z,21.50
2018-10-17T00:23:48.248Z,23.80
2018-10-17T00:26:15.970Z,23.60
2018-10-17T00:28:43.705Z,25.53
2018-10-17T00:31:11.497Z,23.90
2018-10-17T00:33:39.147Z,25.00
2018-10-17T00:36:06.865Z,21.70
2018-10-17T00:38:34.561Z,24.07
2018-10-17T00:41:02.279Z,25.57
2018-10-17T00:43:29.949Z,24.60
2018-10-17T00:45:57.649Z,26.43
2018-10-17T00:48:25.456Z,25.80
2018-10-17T00:50:53.137Z,24.60
2018-10-17T00:53:20.824Z,24.53
2018-10-17T00:55:48.497Z,30.43
2018-10-17T00:58:16.181Z,26.23
2018-10-17T01:00:43.887Z,28.53
2018-10-17T01:03:11.608Z,27.90
2018-10-17T01:05:39.338Z,27.17
2018-10-17T01:08:07.089Z,27.67
2018-10-17T01:10:34.728Z,27.93
2018-10-17T01:13:02.476Z,31.63
2018-10-17T01:15:30.092Z,29.40
2018-10-17T01:17:57.804Z,20.13
2018-10-17T01:20:25.512Z,17.27
2018-10-17T01:22:54.095Z,15.87
2018-10-17T01:25:21.716Z,15.30
2018-10-17T01:27:49.372Z,20.30
2018-10-17T01:30:17.121Z,13.20
2018-10-17T01:32:44.808Z,15.50
2018-10-17T01:35:12.540Z,19.20
2018-10-17T01:37:40.228Z,14.07
2018-10-17T01:40:08.475Z,20.93
2018-10-17T01:42:36.337Z,15.13
2018-10-17T01:45:05.392Z,15.77
2018-10-17T01:47:33.148Z,25.23
2018-10-17T01:50:00.808Z,27.73
2018-10-17T01:52:28.460Z,24.23
2018-10-17T01:54:56.177Z,21.60
2018-10-17T01:57:23.832Z,26.73
2018-10-17T01:59:51.551Z,22.13
2018-10-17T02:02:19.235Z,24.93
2018-10-17T02:04:46.870Z,22.30
2018-10-17T02:07:14.707Z,21.97
2018-10-17T02:09:42.335Z,23.97
2018-10-17T02:12:09.988Z,25.07
2018-10-17T02:14:37.715Z,21.77
2018-10-17T02:17:05.463Z,22.63
2018-10-17T02:19:33.147Z,26.43
2018-10-17T02:22:00.845Z,23.20
2018-10-17T02:24:28.593Z,25.77
2018-10-17T02:26:56.224Z,23.90
2018-10-17T02:29:23.832Z,27.17
2018-10-17T02:31:51.619Z,22.00
2018-10-17T02:34:19.307Z,25.10
2018-10-17T02:36:46.984Z,22.60
2018-10-17T02:39:14.704Z,24.83
2018-10-17T02:41:42.392Z,22.57
2018-10-17T02:44:10.125Z,23.33
2018-10-17T02:46:37.805Z,23.23
2018-10-17T02:49:05.620Z,24.90
2018-10-17T02:51:33.267Z,23.50
2018-10-17T02:54:01.006Z,19.47
2018-10-17T02:56:31.536Z,22.80
2018-10-17T02:58:59.303Z,23.43
2018-10-17T03:01:27.013Z,22.50
2018-10-17T03:03:54.748Z,26.87
2018-10-17T03:06:22.442Z,22.30
2018-10-17T03:08:50.172Z,24.83
2018-10-17T03:11:17.909Z,22.33
2018-10-17T03:13:45.524Z,21.03
2018-10-17T03:16:13.227Z,17.23
2018-10-17T03:18:40.965Z,16.53
2018-10-17T03:21:08.648Z,16.47
2018-10-17T03:23:36.406Z,25.77
2018-10-17T03:26:04.181Z,26.20
2018-10-17T03:28:31.837Z,24.77
2018-10-17T03:30:59.560Z,25.40
2018-10-17T03:33:27.197Z,24.97
2018-10-17T03:35:54.971Z,25.80
2018-10-17T03:38:22.622Z,18.30
2018-10-17T03:40:50.310Z,17.27
2018-10-17T03:43:18.042Z,23.10
2018-10-17T03:45:45.657Z,26.67
2018-10-17T03:48:13.368Z,25.77
2018-10-17T03:50:41.101Z,28.43
2018-10-17T03:53:09.093Z,23.60
2018-10-17T03:55:36.692Z,19.77
2018-10-17T03:58:04.994Z,14.87
2018-10-17T04:00:32.646Z,13.43
2018-10-17T04:03:00.405Z,19.60
2018-10-17T04:05:28.035Z,11.80
2018-10-17T04:07:55.783Z,22.97
2018-10-17T04:10:23.507Z,11.40
2018-10-17T04:12:51.312Z,14.87
2018-10-17T04:15:18.975Z,23.50
2018-10-17T04:17:46.686Z,26.80
2018-10-17T04:20:14.397Z,28.67
2018-10-17T04:22:54.877Z,27.83
2018-10-17T04:25:22.676Z,21.07
2018-10-17T04:27:50.993Z,20.00
2018-10-17T04:30:18.663Z,18.80
2018-10-17T04:32:46.381Z,18.23
2018-10-17T04:35:14.305Z,21.63
2018-10-17T04:37:42.101Z,29.87
2018-10-17T04:40:09.789Z,21.03
2018-10-17T04:42:37.425Z,29.20
2018-10-17T04:45:06.805Z,29.87
2018-10-17T04:47:34.773Z,29.73
2018-10-17T04:50:02.448Z,30.47
2018-10-17T04:52:30.218Z,33.37
2018-10-17T04:54:57.924Z,21.33
2018-10-17T04:57:25.577Z,27.30
2018-10-17T04:59:53.321Z,27.70
2018-10-17T05:02:21.089Z,23.47
2018-10-17T05:04:48.833Z,29.03
2018-10-17T05:07:16.664Z,23.53
2018-10-17T05:09:44.309Z,29.20
2018-10-17T05:12:12.014Z,33.60
2018-10-17T05:14:39.734Z,30.00
2018-10-17T05:17:07.511Z,33.00
2018-10-17T05:19:35.222Z,31.50
2018-10-17T05:22:02.957Z,30.10
2018-10-17T05:24:30.638Z,32.20
2018-10-17T05:26:58.433Z,36.03
2018-10-17T05:29:26.429Z,34.87
2018-10-17T05:32:00.851Z,34.33
2018-10-17T05:34:28.597Z,27.63
2018-10-17T05:36:56.352Z,31.63
2018-10-17T05:39:24.013Z,34.90
2018-10-17T05:41:51.729Z,38.00
2018-10-17T05:44:19.548Z,34.80
2018-10-17T05:46:47.282Z,25.47
2018-10-17T05:49:14.990Z,21.27
2018-10-17T05:51:42.705Z,28.60
2018-10-17T05:54:10.461Z,24.37
2018-10-17T05:56:38.168Z,16.83
2018-10-17T05:59:05.937Z,31.93
2018-10-17T06:01:33.863Z,36.40
2018-10-17T06:04:01.430Z,28.20
2018-10-17T06:06:29.121Z,35.80
2018-10-17T06:08:56.935Z,39.97
2018-10-17T06:11:24.663Z,41.40
2018-10-17T06:13:52.438Z,54.87
2018-10-17T06:16:20.113Z,52.70
2018-10-17T06:18:47.854Z,43.57
2018-10-17T06:21:15.612Z,41.80
2018-10-17T06:23:43.329Z,40.00
2018-10-17T06:26:11.053Z,42.73
2018-10-17T06:28:38.801Z,47.43
2018-10-17T06:31:06.535Z,45.77
2018-10-17T06:33:34.193Z,51.07
2018-10-17T06:36:05.415Z,38.43
2018-10-17T06:38:33.205Z,47.30
2018-10-17T06:41:00.987Z,50.43
2018-10-17T06:43:28.759Z,52.67
2018-10-17T06:45:56.380Z,48.00
2018-10-17T06:48:24.084Z,50.53
2018-10-17T06:50:51.829Z,47.03
2018-10-17T06:53:19.566Z,50.43
2018-10-17T06:55:47.243Z,51.20
2018-10-17T06:58:15.017Z,55.83
2018-10-17T07:00:42.738Z,48.73
2018-10-17T07:03:10.443Z,53.10
2018-10-17T07:05:38.222Z,54.03
2018-10-17T07:08:05.962Z,60.73
2018-10-17T07:10:33.677Z,60.80
2018-10-17T07:13:01.425Z,54.93
2018-10-17T07:15:29.258Z,47.50
2018-10-17T07:17:56.809Z,45.53
2018-10-17T07:20:24.473Z,43.97
2018-10-17T07:22:52.209Z,48.80
2018-10-17T07:25:19.917Z,48.87
2018-10-17T07:27:47.536Z,41.03
2018-10-17T07:30:22.030Z,38.13
2018-10-17T07:32:49.872Z,38.97
2018-10-17T07:35:17.672Z,41.93
2018-10-17T07:37:45.333Z,36.13
2018-10-17T07:40:13.035Z,40.30
2018-10-17T07:42:40.732Z,39.57
2018-10-17T07:45:08.566Z,37.20
2018-10-17T07:47:36.368Z,35.53
2018-10-17T07:50:04.776Z,36.43
2018-10-17T07:52:32.441Z,37.47
2018-10-17T07:55:00.110Z,36.40
2018-10-17T07:57:27.840Z,36.93
2018-10-17T07:59:55.540Z,34.77
2018-10-17T08:02:23.252Z,30.70
2018-10-17T08:04:51.065Z,26.77
2018-10-17T08:07:18.822Z,33.73
2018-10-17T08:09:46.567Z,47.90
2018-10-17T08:12:14.367Z,43.00
2018-10-17T08:14:42.141Z,36.37
2018-10-17T08:17:10.653Z,41.70
2018-10-17T08:19:38.407Z,31.80
2018-10-17T08:22:06.143Z,31.97
2018-10-17T08:24:33.851Z,34.00
2018-10-17T08:27:01.582Z,41.67
2018-10-17T08:29:29.328Z,31.13
2018-10-17T08:31:57.089Z,37.77
2018-10-17T08:34:24.732Z,34.83
2018-10-17T08:36:52.717Z,32.90
2018-10-17T08:39:20.149Z,34.93
2018-10-17T08:41:47.861Z,30.60
2018-10-17T08:44:15.528Z,29.53
2018-10-17T08:46:43.145Z,29.00
2018-10-17T08:49:10.890Z,28.40
2018-10-17T08:51:38.615Z,31.23
2018-10-17T08:54:06.358Z,30.87
2018-10-17T08:56:34.050Z,31.13
2018-10-17T08:59:01.839Z,28.63
2018-10-17T09:01:29.541Z,25.80
2018-10-17T09:03:57.305Z,27.57
2018-10-17T09:06:25.146Z,26.47
2018-10-17T09:08:52.910Z,31.97
2018-10-17T09:11:21.218Z,25.20
2018-10-17T09:13:49.729Z,25.07
2018-10-17T09:16:17.544Z,21.93
2018-10-17T09:18:45.150Z,28.10
2018-10-17T09:21:13.307Z,23.60
2018-10-17T09:23:40.667Z,25.47
2018-10-17T09:26:08.422Z,26.87
2018-10-17T09:28:36.118Z,26.17
2018-10-17T09:31:03.925Z,27.87
2018-10-17T09:33:32.212Z,25.03
2018-10-17T09:35:59.944Z,24.50
2018-10-17T09:38:28.238Z,29.43
2018-10-17T09:40:56.045Z,26.37
2018-10-17T09:43:23.887Z,24.97
2018-10-17T09:45:51.519Z,29.90
2018-10-17T09:48:19.358Z,24.67
2018-10-17T09:50:46.989Z,33.53
2018-10-17T09:53:14.748Z,24.97
2018-10-17T09:55:42.481Z,20.00
2018-10-17T09:58:10.317Z,23.17
2018-10-17T10:00:43.664Z,22.47
2018-10-17T10:03:11.536Z,23.50
2018-10-17T10:05:39.309Z,23.87
2018-10-17T10:08:07.817Z,29.00
2018-10-17T10:10:35.545Z,23.53
2018-10-17T10:13:03.798Z,23.43
2018-10-17T10:15:31.513Z,21.90
2018-10-17T10:17:59.191Z,21.40
2018-10-17T10:20:27.030Z,25.37
2018-10-17T10:22:54.836Z,24.47
2018-10-17T10:25:22.505Z,25.73
2018-10-17T10:27:50.162Z,21.67
2018-10-17T10:30:17.991Z,19.90
2018-10-17T10:32:45.621Z,21.63
2018-10-17T10:35:13.363Z,25.03
2018-10-17T10:37:41.089Z,18.63
2018-10-17T10:40:08.784Z,19.07
2018-10-17T10:42:36.425Z,18.60
2018-10-17T10:45:05.217Z,18.97
2018-10-17T10:47:32.833Z,17.93
2018-10-17T10:50:00.562Z,21.30
2018-10-17T10:52:28.321Z,21.53
2018-10-17T10:54:56.070Z,17.03
2018-10-17T10:57:23.773Z,17.97
2018-10-17T10:59:51.513Z,16.37
2018-10-17T11:02:19.324Z,16.87
2018-10-17T11:04:47.119Z,16.63
2018-10-17T11:07:14.781Z,15.37
2018-10-17T11:09:42.485Z,15.07
2018-10-17T11:12:10.191Z,15.93
2018-10-17T11:14:38.032Z,17.33
2018-10-17T11:17:05.677Z,16.70
2018-10-17T11:19:33.326Z,14.73
2018-10-17T11:22:01.105Z,13.13
2018-10-17T11:24:28.755Z,15.70
2018-10-17T11:26:56.483Z,17.17
2018-10-17T11:29:24.183Z,18.67
2018-10-17T11:31:51.919Z,14.17
2018-10-17T11:34:21.738Z,16.47
2018-10-17T11:36:49.511Z,13.33
2018-10-17T11:39:17.320Z,15.70
2018-10-17T11:41:44.929Z,18.17
2018-10-17T11:44:12.799Z,14.47
2018-10-17T11:46:40.506Z,16.57
2018-10-17T11:49:08.229Z,14.63
2018-10-17T11:51:35.896Z,13.17
2018-10-17T11:54:04.353Z,14.47
2018-10-17T11:56:32.024Z,11.83
2018-10-17T11:58:59.782Z,15.10
2018-10-17T12:01:27.821Z,11.70
2018-10-17T12:03:55.714Z,11.77
2018-10-17T12:06:23.284Z,13.67
2018-10-17T12:08:50.931Z,14.50
2018-10-17T12:11:18.830Z,13.97
2018-10-17T12:13:46.464Z,13.00
2018-10-17T12:16:14.569Z,13.77
2018-10-17T12:18:42.421Z,13.17
2018-10-17T12:21:10.162Z,11.70
2018-10-17T12:23:37.801Z,9.87
2018-10-17T12:26:05.577Z,10.47
2018-10-17T12:28:33.320Z,10.77
2018-10-17T12:31:00.904Z,14.07
2018-10-17T12:33:28.569Z,12.47
2018-10-17T12:35:56.292Z,10.80
2018-10-17T12:38:24.006Z,13.00
2018-10-17T12:40:51.834Z,14.53
2018-10-17T12:43:19.280Z,9.00
2018-10-17T12:45:47.039Z,14.93
2018-10-17T12:48:14.705Z,15.60
2018-10-17T12:50:43.386Z,9.43
2018-10-17T12:53:12.439Z,11.07
2018-10-17T12:55:40.013Z,10.43
2018-10-17T12:58:07.713Z,10.63
2018-10-17T13:00:35.380Z,8.70
2018-10-17T13:03:03.149Z,7.80
2018-10-17T13:05:30.796Z,11.43
2018-10-17T13:07:58.524Z,9.87
2018-10-17T13:10:26.260Z,10.63
2018-10-17T13:12:54.006Z,13.20
2018-10-17T13:15:21.726Z,13.93
2018-10-17T13:17:49.360Z,10.77
2018-10-17T13:20:17.052Z,10.50
2018-10-17T13:22:44.734Z,12.73
2018-10-17T13:25:12.481Z,16.37
2018-10-17T13:27:40.138Z,13.17
2018-10-17T13:30:08.347Z,10.27
2018-10-17T13:32:35.994Z,10.23
2018-10-17T13:35:04.319Z,8.53
2018-10-17T13:37:32.014Z,8.93
2018-10-17T13:39:59.641Z,9.43
2018-10-17T13:42:27.332Z,8.40
2018-10-17T13:44:54.984Z,10.17
2018-10-17T13:47:22.721Z,9.20
2018-10-17T13:49:50.413Z,10.37
2018-10-17T13:52:18.147Z,9.13
2018-10-17T13:54:46.067Z,8.77
2018-10-17T13:57:13.633Z,9.23
2018-10-17T13:59:41.361Z,9.53
2018-10-17T14:02:09.118Z,9.20
2018-10-17T14:04:36.843Z,8.50
2018-10-17T14:07:04.610Z,7.83
2018-10-17T14:09:32.269Z,8.47
2018-10-17T14:11:59.978Z,9.33
2018-10-17T14:14:27.881Z,11.53
2018-10-17T14:16:55.576Z,10.93
2018-10-17T14:19:28.239Z,8.33
2018-10-17T14:21:55.897Z,11.60
2018-10-17T14:24:23.817Z,10.37
2018-10-17T14:26:51.677Z,7.80
2018-10-17T14:29:19.436Z,8.17
2018-10-17T14:31:47.232Z,8.60
2018-10-17T14:34:14.948Z,10.63
2018-10-17T14:36:47.357Z,16.23
2018-10-17T14:39:15.139Z,11.67
2018-10-17T14:41:43.685Z,9.57
2018-10-17T14:44:12.709Z,11.43
2018-10-17T14:46:42.098Z,8.40
2018-10-17T14:49:10.278Z,9.20
2018-10-17T14:51:41.882Z,9.53
2018-10-17T14:54:11.441Z,9.67
2018-10-17T14:56:39.146Z,8.03
2018-10-17T14:59:06.892Z,9.60
2018-10-17T15:01:34.613Z,8.90
2018-10-17T15:04:02.342Z,8.60
2018-10-17T15:06:29.988Z,8.57
2018-10-17T15:08:57.669Z,8.47
2018-10-17T15:11:25.365Z,10.67
2018-10-17T15:13:53.317Z,10.07
2018-10-17T15:16:21.052Z,8.50
2018-10-17T15:18:48.773Z,11.27
2018-10-17T15:21:19.405Z,9.50
2018-10-17T15:23:47.114Z,11.57
2018-10-17T15:26:14.760Z,8.87
2018-10-17T15:28:42.517Z,10.70
2018-10-17T15:31:10.283Z,9.23
2018-10-17T15:33:37.952Z,8.83
2018-10-17T15:36:05.871Z,11.50
2018-10-17T15:38:33.517Z,10.03
2018-10-17T15:41:01.178Z,8.57
2018-10-17T15:43:28.954Z,9.97
2018-10-17T15:45:56.628Z,10.73
2018-10-17T15:48:28.640Z,10.37
2018-10-17T15:50:56.483Z,10.77
2018-10-17T15:53:24.148Z,11.77
2018-10-17T15:55:51.869Z,7.20
2018-10-17T15:58:19.633Z,13.57
2018-10-17T16:00:47.379Z,11.13
2018-10-17T16:03:15.141Z,10.57
2018-10-17T16:05:42.804Z,11.67
2018-10-17T16:08:10.648Z,11.57
2018-10-17T16:10:38.311Z,11.07
2018-10-17T16:13:06.027Z,8.33
2018-10-17T16:15:38.329Z,10.27
2018-10-17T16:18:06.596Z,11.37
2018-10-17T16:20:34.233Z,11.17
2018-10-17T16:23:02.114Z,7.37
2018-10-17T16:25:29.633Z,25.27
2018-10-17T16:27:57.338Z,17.53
2018-10-17T16:30:27.255Z,18.57
2018-10-17T16:32:54.817Z,20.10
2018-10-17T16:35:22.538Z,15.33
2018-10-17T16:37:50.357Z,11.33
2018-10-17T16:40:18.058Z,17.00
2018-10-17T16:42:45.814Z,13.20
2018-10-17T16:45:13.488Z,18.00
2018-10-17T16:47:41.386Z,10.23
2018-10-17T16:50:09.111Z,18.10
2018-10-17T16:52:36.834Z,14.67
2018-10-17T16:55:06.296Z,15.43
2018-10-17T16:57:33.984Z,12.63
2018-10-17T17:00:01.810Z,11.23
2018-10-17T17:02:29.540Z,14.37
2018-10-17T17:04:57.226Z,15.20
2018-10-17T17:07:24.945Z,15.90
2018-10-17T17:09:52.644Z,13.07
2018-10-17T17:12:20.397Z,21.10
2018-10-17T17:14:48.194Z,14.27
2018-10-17T17:17:15.912Z,12.93
2018-10-17T17:19:43.722Z,13.20
2018-10-17T17:22:11.541Z,14.90
2018-10-17T17:24:39.334Z,14.70
2018-10-17T17:27:07.137Z,17.77
2018-10-17T17:29:34.991Z,12.50
2018-10-17T17:32:02.757Z,13.53
2018-10-17T17:34:30.496Z,18.53
2018-10-17T17:36:58.197Z,13.60
2018-10-17T17:39:25.877Z,16.87
2018-10-17T17:41:53.599Z,15.37
2018-10-17T17:44:21.295Z,23.07
2018-10-17T17:46:48.917Z,18.70
2018-10-17T17:49:16.568Z,15.80
2018-10-17T17:51:45.908Z,18.27
2018-10-17T17:54:14.093Z,17.63
2018-10-17T17:56:41.889Z,19.93
2018-10-17T17:59:10.509Z,15.80
2018-10-17T18:01:39.341Z,21.27
2018-10-17T18:04:07.913Z,19.50
2018-10-17T18:06:36.323Z,19.60
2018-10-17T18:09:07.773Z,19.07
2018-10-17T18:11:35.672Z,22.40
2018-10-17T18:14:03.973Z,21.20
2018-10-17T18:16:32.836Z,20.90
2018-10-17T18:19:01.005Z,24.87
2018-10-17T18:21:29.676Z,20.63
2018-10-17T18:23:59.576Z,27.03
2018-10-17T18:26:27.548Z,22.07
2018-10-17T18:28:55.706Z,26.57
2018-10-17T18:31:25.074Z,26.83
2018-10-17T18:33:55.058Z,28.80
2018-10-17T18:36:23.367Z,21.47
2018-10-17T18:38:51.037Z,25.73
2018-10-17T18:41:20.630Z,19.90
2018-10-17T18:43:50.457Z,22.57
2018-10-17T18:46:18.365Z,22.43
2018-10-17T18:48:46.045Z,25.53
2018-10-17T18:51:16.735Z,20.27
2018-10-17T18:53:44.897Z,22.97
2018-10-17T18:56:12.654Z,19.00
2018-10-17T18:58:40.640Z,26.97
2018-10-17T19:01:08.383Z,18.27
2018-10-17T19:03:36.186Z,22.90
2018-10-17T19:06:04.181Z,21.87
2018-10-17T19:08:31.872Z,20.50
2018-10-17T19:10:59.996Z,25.50
2018-10-17T19:13:27.866Z,24.67
2018-10-17T19:15:55.892Z,24.67
2018-10-17T19:18:23.658Z,19.77
2018-10-17T19:20:51.562Z,19.27
2018-10-17T19:23:20.404Z,22.17
2018-10-17T19:25:48.289Z,22.47
2018-10-17T19:28:17.521Z,22.77
2018-10-17T19:30:45.405Z,23.10
2018-10-17T19:33:13.650Z,25.60
2018-10-17T19:35:42.446Z,22.07
2018-10-17T19:38:10.812Z,22.40
2018-10-17T19:40:38.712Z,22.33
2018-10-17T19:43:06.488Z,20.83
2018-10-17T19:45:34.425Z,17.67
2018-10-17T19:48:02.292Z,20.80
2018-10-17T19:50:29.993Z,20.87
2018-10-17T19:53:05.437Z,21.17
2018-10-17T19:55:40.683Z,22.33
2018-10-17T19:58:12.654Z,21.57
2018-10-17T20:00:44.875Z,24.33
2018-10-17T20:03:12.923Z,21.30
2018-10-17T20:05:41.712Z,20.50
2018-10-17T20:08:09.506Z,21.57
2018-10-17T20:10:37.187Z,19.83
2018-10-17T20:13:05.716Z,26.33
2018-10-17T20:15:34.796Z,22.83
2018-10-17T20:18:02.601Z,22.10
2018-10-17T20:20:30.277Z,22.97
2018-10-17T20:22:58.021Z,21.40
2018-10-17T20:25:25.758Z,25.60
2018-10-17T20:27:53.532Z,22.00
2018-10-17T20:30:21.280Z,23.47
2018-10-17T20:32:48.965Z,18.87
2018-10-17T20:35:16.763Z,19.17
2018-10-17T20:37:44.415Z,16.60
2018-10-17T20:40:12.221Z,24.80
2018-10-17T20:42:39.953Z,20.27
2018-10-17T20:45:07.754Z,18.37
2018-10-17T20:47:35.498Z,12.73
2018-10-17T20:50:03.650Z,19.47
2018-10-17T20:52:31.473Z,22.23
2018-10-17T20:54:58.981Z,21.53
2018-10-17T20:57:26.817Z,20.20
2018-10-17T20:59:54.593Z,26.13
2018-10-17T21:02:22.360Z,25.27
2018-10-17T21:04:50.030Z,20.47
2018-10-17T21:07:17.793Z,23.37
2018-10-17T21:09:45.438Z,22.57
2018-10-17T21:12:13.095Z,21.33
2018-10-17T21:14:40.801Z,23.80
2018-10-17T21:17:08.483Z,20.53
2018-10-17T21:19:36.184Z,17.20
2018-10-17T21:22:04.264Z,24.07
2018-10-17T21:24:32.160Z,26.00
2018-10-17T21:27:00.070Z,24.70
2018-10-17T21:29:27.920Z,22.27
2018-10-17T21:31:55.651Z,29.00
2018-10-17T21:34:23.346Z,23.53
2018-10-17T21:36:50.989Z,24.33
2018-10-17T21:39:18.632Z,26.10
2018-10-17T21:41:46.296Z,23.17
2018-10-17T21:44:14.182Z,25.27
2018-10-17T21:46:41.864Z,32.57
2018-10-17T21:49:09.878Z,30.30
2018-10-17T21:51:38.265Z,28.03
2018-10-17T21:54:06.252Z,23.83
2018-10-17T21:56:34.290Z,29.33
2018-10-17T21:59:02.176Z,24.73
2018-10-17T22:01:29.965Z,21.50
2018-10-17T22:03:57.668Z,25.17
2018-10-17T22:06:25.383Z,24.03
2018-10-17T22:08:53.026Z,25.97
2018-10-17T22:11:20.741Z,22.87
2018-10-17T22:13:48.428Z,29.43
2018-10-17T22:16:16.169Z,22.57
2018-10-17T22:18:43.905Z,24.23
2018-10-17T22:21:11.612Z,26.53
2018-10-17T22:23:39.288Z,23.80
2018-10-17T22:26:07.734Z,20.77
2018-10-17T22:28:35.396Z,21.00
2018-10-17T22:31:03.101Z,22.13
2018-10-17T22:33:31.807Z,20.73
2018-10-17T22:35:59.549Z,21.10
2018-10-17T22:38:27.272Z,21.43
2018-10-17T22:40:54.953Z,19.30
2018-10-17T22:43:22.705Z,18.63
2018-10-17T22:45:50.356Z,23.57
2018-10-17T22:48:18.104Z,14.43
2018-10-17T22:50:45.869Z,19.83
2018-10-17T22:53:14.145Z,23.20
2018-10-17T22:55:41.811Z,19.70
2018-10-17T22:58:09.473Z,24.60
2018-10-17T23:00:42.577Z,16.37
2018-10-17T23:03:10.248Z,29.27
2018-10-17T23:05:39.486Z,31.97
2018-10-17T23:08:08.592Z,25.40
2018-10-17T23:10:36.329Z,28.47
2018-10-17T23:13:04.284Z,23.70
2018-10-17T23:15:32.151Z,25.57
2018-10-17T23:17:59.960Z,23.70
2018-10-17T23:20:27.705Z,21.37
2018-10-17T23:22:55.430Z,15.20
2018-10-17T23:25:23.129Z,17.83
2018-10-17T23:27:50.813Z,23.03
2018-10-17T23:30:18.504Z,23.43
2018-10-17T23:32:46.209Z,23.43
2018-10-17T23:35:13.893Z,26.10
2018-10-17T23:37:41.524Z,25.50
2018-10-17T23:40:09.309Z,25.43
2018-10-17T23:42:37.651Z,28.80
2018-10-17T23:45:06.606Z,25.23
2018-10-17T23:47:34.585Z,23.97
2018-10-17T23:50:02.449Z,25.63
2018-10-17T23:52:30.117Z,25.33
2018-10-17T23:54:57.732Z,23.27
2018-10-17T23:57:25.422Z,26.27
2018-10-17T23:59:53.079Z,26.17
